createdAt,value
2018-09-05T00:02:26.288Z,78.83
2018-09-05T00:04:55.179Z,78.88
2018-09-05T00:07:23.766Z,78.90
2018-09-05T00:09:52.565Z,78.90
2018-09-05T00:12:21.228Z,79.17
2018-09-05T00:14:49.816Z,79.38
2018-09-05T00:17:18.429Z,80.30
2018-09-05T00:19:47.041Z,80.05
2018-09-05T00:22:15.699Z,79.93
2018-09-05T00:24:44.512Z,80.31
2018-09-05T00:27:13.097Z,80.78
2018-09-05T00:29:41.757Z,80.74
2018-09-05T00:32:10.740Z,80.88
2018-09-05T00:34:39.493Z,80.65
2018-09-05T00:37:08.212Z,80.80
2018-09-05T00:39:36.848Z,80.68
2018-09-05T00:42:05.520Z,80.84
2018-09-05T00:44:34.212Z,81.52
2018-09-05T00:47:03.046Z,81.64
2018-09-05T00:49:31.685Z,81.18
2018-09-05T00:52:00.701Z,81.45
2018-09-05T00:54:29.377Z,81.21
2018-09-05T00:56:57.967Z,81.41
2018-09-05T00:59:26.660Z,81.74
2018-09-05T01:01:55.385Z,82.57
2018-09-05T01:04:24.179Z,82.95
2018-09-05T01:06:53.030Z,82.37
2018-09-05T01:09:21.628Z,81.98
2018-09-05T01:11:50.265Z,82.81
2018-09-05T01:14:18.962Z,82.89
2018-09-05T01:16:47.620Z,82.94
2018-09-05T01:19:16.208Z,83.03
2018-09-05T01:21:44.884Z,83.22
2018-09-05T01:24:13.593Z,82.69
2018-09-05T01:26:42.874Z,83.58
2018-09-05T01:29:11.489Z,83.61
2018-09-05T01:31:40.093Z,82.83
2018-09-05T01:34:08.742Z,83.65
2018-09-05T01:36:37.550Z,83.26
2018-09-05T01:39:07.867Z,83.37
2018-09-05T01:41:36.448Z,83.16
2018-09-05T01:44:05.044Z,83.54
2018-09-05T01:46:33.633Z,83.58
2018-09-05T01:49:02.370Z,83.07
2018-09-05T01:51:33.569Z,83.99
2018-09-05T01:54:03.188Z,83.42
2018-09-05T01:56:31.895Z,84.32
2018-09-05T01:59:00.572Z,84.36
2018-09-05T02:01:29.184Z,84.15
2018-09-05T02:03:58.614Z,84.53
2018-09-05T02:06:27.203Z,85.38
2018-09-05T02:08:55.920Z,86.22
2018-09-05T02:11:24.673Z,86.12
2018-09-05T02:13:53.338Z,86.67
2018-09-05T02:16:21.937Z,87.09
2018-09-05T02:18:50.673Z,87.71
2018-09-05T02:21:19.304Z,87.73
2018-09-05T02:23:47.998Z,88.22
2018-09-05T02:26:16.611Z,89.26
2018-09-05T02:28:45.274Z,88.75
2018-09-05T02:31:13.980Z,88.97
2018-09-05T02:33:42.624Z,89.46
2018-09-05T02:36:11.476Z,89.93
2018-09-05T02:38:40.156Z,89.56
2018-09-05T02:41:08.921Z,89.45
2018-09-05T02:44:43.853Z,89.65
2018-09-05T02:47:13.348Z,90.21
2018-09-05T02:49:42.669Z,90.28
2018-09-05T02:52:11.348Z,90.63
2018-09-05T02:54:39.926Z,91.78
2018-09-05T02:57:08.615Z,91.58
2018-09-05T02:59:37.212Z,92.31
2018-09-05T03:02:05.960Z,92.37
2018-09-05T03:04:34.864Z,92.73
2018-09-05T03:07:03.584Z,92.08
2018-09-05T03:09:32.208Z,93.01
2018-09-05T03:12:00.894Z,93.15
2018-09-05T03:14:29.607Z,93.52
2018-09-05T03:16:58.302Z,93.43
2018-09-05T03:19:26.962Z,92.88
2018-09-05T03:21:55.788Z,93.45
2018-09-05T03:24:24.424Z,92.63
2018-09-05T03:26:53.168Z,93.24
2018-09-05T03:29:22.041Z,92.91
2018-09-05T03:31:50.777Z,93.04
2018-09-05T03:34:19.364Z,93.54
2018-09-05T03:36:47.964Z,93.57
2018-09-05T03:39:16.708Z,93.94
2018-09-05T03:41:45.418Z,93.88
2018-09-05T03:44:14.012Z,93.81
2018-09-05T03:46:42.645Z,93.82
2018-09-05T03:49:11.242Z,93.20
2018-09-05T03:51:39.961Z,93.61
2018-09-05T03:54:08.577Z,93.05
2018-09-05T03:56:37.164Z,93.80
2018-09-05T03:59:06.151Z,92.87
2018-09-05T04:01:34.761Z,92.74
2018-09-05T04:04:03.361Z,92.31
2018-09-05T04:06:32.004Z,92.09
2018-09-05T04:09:00.762Z,92.65
2018-09-05T04:11:29.506Z,92.21
2018-09-05T04:13:58.105Z,92.08
2018-09-05T04:16:26.748Z,91.57
2018-09-05T04:18:55.372Z,92.57
2018-09-05T04:21:24.693Z,92.45
2018-09-05T04:23:53.283Z,92.41
2018-09-05T04:26:21.876Z,92.60
2018-09-05T04:28:50.498Z,93.19
2018-09-05T04:31:19.214Z,92.95
2018-09-05T04:33:47.846Z,92.71
2018-09-05T04:36:16.496Z,93.62
2018-09-05T04:38:45.141Z,93.62
2018-09-05T04:41:13.880Z,93.47
2018-09-05T04:43:42.537Z,93.59
2018-09-05T04:46:11.691Z,93.08
2018-09-05T04:48:41.304Z,93.03
2018-09-05T04:51:09.952Z,92.91
2018-09-05T04:53:38.600Z,92.05
2018-09-05T04:56:07.337Z,91.20
2018-09-05T04:58:35.968Z,90.96
2018-09-05T05:01:04.616Z,91.08
2018-09-05T05:03:34.016Z,89.66
2018-09-05T05:06:02.681Z,89.54
2018-09-05T05:08:31.526Z,87.95
2018-09-05T05:11:00.962Z,87.75
2018-09-05T05:13:30.250Z,87.61
2018-09-05T05:15:58.954Z,87.22
2018-09-05T05:18:27.548Z,86.44
2018-09-05T05:20:56.266Z,85.91
2018-09-05T05:23:25.029Z,84.68
2018-09-05T05:25:53.775Z,84.87
2018-09-05T05:28:22.468Z,84.04
2018-09-05T05:30:51.052Z,83.85
2018-09-05T05:33:19.630Z,83.42
2018-09-05T05:35:48.276Z,82.64
2018-09-05T05:38:16.917Z,82.48
2018-09-05T05:40:45.510Z,81.45
2018-09-05T05:43:14.265Z,80.73
2018-09-05T05:45:43.546Z,80.46
2018-09-05T05:48:12.230Z,79.94
2018-09-05T05:50:40.910Z,79.05
2018-09-05T05:53:09.581Z,78.86
2018-09-05T05:55:38.332Z,78.34
2018-09-05T05:58:06.966Z,77.79
2018-09-05T06:00:35.733Z,76.87
2018-09-05T06:03:04.352Z,75.69
2018-09-05T06:05:32.980Z,74.74
2018-09-05T06:08:01.636Z,73.66
2018-09-05T06:10:30.232Z,72.98
2018-09-05T06:12:59.424Z,70.34
2018-09-05T06:15:28.792Z,65.65
2018-09-05T06:17:58.275Z,60.55
2018-09-05T06:20:27.698Z,54.45
2018-09-05T06:22:56.945Z,50.46
2018-09-05T06:25:26.176Z,48.66
2018-09-05T06:27:55.504Z,45.72
2018-09-05T06:30:25.017Z,43.68
2018-09-05T06:32:54.372Z,41.92
2018-09-05T06:35:23.664Z,39.64
2018-09-05T06:37:52.874Z,37.95
2018-09-05T06:40:22.182Z,38.04
2018-09-05T06:42:51.388Z,35.46
2018-09-05T06:45:20.594Z,34.99
2018-09-05T06:47:49.993Z,34.39
2018-09-05T06:50:19.229Z,33.77
2018-09-05T06:53:29.330Z,33.68
2018-09-05T06:55:58.654Z,31.28
2018-09-05T06:58:27.896Z,31.00
2018-09-05T07:00:57.100Z,30.81
2018-09-05T07:03:26.399Z,30.42
2018-09-05T07:05:55.631Z,28.54
2018-09-05T07:08:24.880Z,28.51
2018-09-05T07:10:54.101Z,28.23
2018-09-05T07:13:23.472Z,28.06
2018-09-05T07:15:52.680Z,28.24
2018-09-05T07:18:22.003Z,29.14
2018-09-05T07:20:51.292Z,28.63
2018-09-05T07:23:20.464Z,28.81
2018-09-05T07:25:49.896Z,29.08
2018-09-05T07:28:19.105Z,28.08
2018-09-05T07:30:48.692Z,29.50
2018-09-05T07:33:17.893Z,28.17
2018-09-05T07:35:47.178Z,29.06
2018-09-05T07:38:16.448Z,27.77
2018-09-05T07:40:45.717Z,27.67
2018-09-05T07:43:14.724Z,26.39
2018-09-05T07:45:43.940Z,25.77
2018-09-05T07:48:13.185Z,25.72
2018-09-05T07:50:42.159Z,25.25
2018-09-05T07:53:11.268Z,25.29
2018-09-05T07:55:40.268Z,25.61
2018-09-05T07:58:09.524Z,27.05
2018-09-05T08:00:38.736Z,26.74
2018-09-05T08:03:07.959Z,25.93
2018-09-05T08:05:36.956Z,26.60
2018-09-05T08:08:06.911Z,26.20
2018-09-05T08:10:35.915Z,26.02
2018-09-05T08:13:04.860Z,26.17
2018-09-05T08:15:33.914Z,26.33
2018-09-05T08:18:03.631Z,25.62
2018-09-05T08:20:32.772Z,26.01
2018-09-05T08:23:01.720Z,25.82
2018-09-05T08:25:30.759Z,25.72
2018-09-05T08:27:59.784Z,25.94
2018-09-05T08:30:30.144Z,25.33
2018-09-05T08:32:59.312Z,25.37
2018-09-05T08:35:28.861Z,25.31
2018-09-05T08:37:58.095Z,25.53
2018-09-05T08:40:27.549Z,25.59
2018-09-05T08:42:56.812Z,24.49
2018-09-05T08:45:26.454Z,24.50
2018-09-05T08:47:55.517Z,25.30
2018-09-05T08:50:24.926Z,25.87
2018-09-05T08:52:54.256Z,28.19
2018-09-05T08:55:23.804Z,29.92
2018-09-05T08:57:53.080Z,31.81
2018-09-05T09:00:22.388Z,33.55
2018-09-05T09:02:51.671Z,34.52
2018-09-05T09:05:20.876Z,36.58
2018-09-05T09:07:50.368Z,35.50
2018-09-05T09:10:19.692Z,36.92
2018-09-05T09:12:48.977Z,37.38
2018-09-05T09:15:19.171Z,37.02
2018-09-05T09:17:48.570Z,37.48
2018-09-05T09:20:17.826Z,37.41
2018-09-05T09:22:46.976Z,37.29
2018-09-05T09:25:16.236Z,38.99
2018-09-05T09:27:45.476Z,39.47
2018-09-05T09:30:14.781Z,39.19
2018-09-05T09:32:44.112Z,40.37
2018-09-05T09:35:13.360Z,40.38
2018-09-05T09:37:42.660Z,40.00
2018-09-05T09:40:12.021Z,39.67
2018-09-05T09:42:41.487Z,40.56
2018-09-05T09:45:10.685Z,40.04
2018-09-05T09:47:39.962Z,40.25
2018-09-05T09:50:09.408Z,40.70
2018-09-05T09:52:39.450Z,42.20
2018-09-05T09:55:09.399Z,41.48
2018-09-05T09:57:38.855Z,41.83
2018-09-05T10:00:09.556Z,43.29
2018-09-05T10:02:43.987Z,42.74
2018-09-05T10:06:19.431Z,43.47
2018-09-05T10:08:54.059Z,41.82
2018-09-05T10:11:28.779Z,41.36
2018-09-05T10:14:03.448Z,40.13
2018-09-05T10:16:37.766Z,41.32
2018-09-05T10:19:08.490Z,41.19
2018-09-05T10:21:38.110Z,41.39
2018-09-05T10:24:07.495Z,41.68
2018-09-05T10:26:36.941Z,42.91
2018-09-05T10:29:06.184Z,42.43
2018-09-05T10:31:36.341Z,42.58
2018-09-05T10:34:06.315Z,42.79
2018-09-05T10:36:35.520Z,42.20
2018-09-05T10:39:06.878Z,42.21
2018-09-05T10:41:36.433Z,42.73
2018-09-05T10:44:05.933Z,42.50
2018-09-05T10:46:36.489Z,41.74
2018-09-05T10:49:06.498Z,42.46
2018-09-05T10:51:41.103Z,42.10
2018-09-05T10:54:10.399Z,41.08
2018-09-05T10:56:39.591Z,41.00
2018-09-05T10:59:08.814Z,39.09
2018-09-05T11:01:38.110Z,41.31
2018-09-05T11:04:07.323Z,41.41
2018-09-05T11:06:36.699Z,42.04
2018-09-05T11:09:09.224Z,40.50
2018-09-05T11:11:38.895Z,40.90
2018-09-05T11:14:09.858Z,42.16
2018-09-05T11:16:39.530Z,40.90
2018-09-05T11:19:09.532Z,40.77
2018-09-05T11:21:39.159Z,41.35
2018-09-05T11:24:08.808Z,42.36
2018-09-05T11:26:38.578Z,41.69
2018-09-05T11:29:08.882Z,43.14
2018-09-05T11:31:38.252Z,43.17
2018-09-05T11:34:07.836Z,43.68
2018-09-05T11:36:37.008Z,43.13
2018-09-05T11:39:10.810Z,43.42
2018-09-05T11:41:40.146Z,43.04
2018-09-05T11:44:09.313Z,43.51
2018-09-05T11:46:39.257Z,44.05
2018-09-05T11:49:09.245Z,40.97
2018-09-05T11:51:38.586Z,42.17
2018-09-05T11:54:08.547Z,41.45
2018-09-05T11:56:37.716Z,41.00
2018-09-05T11:59:07.621Z,40.26
2018-09-05T12:01:37.441Z,42.64
2018-09-05T12:04:06.675Z,41.88
2018-09-05T12:06:35.924Z,41.56
2018-09-05T12:09:08.494Z,41.64
2018-09-05T12:11:38.681Z,40.88
2018-09-05T12:14:08.651Z,41.29
2018-09-05T12:16:38.324Z,41.72
2018-09-05T12:19:07.898Z,40.99
2018-09-05T12:21:37.148Z,41.50
2018-09-05T12:24:06.381Z,42.07
2018-09-05T12:26:36.015Z,42.58
2018-09-05T12:29:07.964Z,43.02
2018-09-05T12:31:37.129Z,41.15
2018-09-05T12:34:06.344Z,41.04
2018-09-05T12:36:35.704Z,40.67
2018-09-05T12:39:08.315Z,41.73
2018-09-05T12:41:38.076Z,41.72
2018-09-05T12:44:07.696Z,40.42
2018-09-05T12:46:37.223Z,39.96
2018-09-05T12:49:06.399Z,40.82
2018-09-05T12:51:35.698Z,40.58
2018-09-05T12:54:05.927Z,40.68
2018-09-05T12:56:35.196Z,40.05
2018-09-05T12:59:04.377Z,41.25
2018-09-05T13:01:33.817Z,40.90
2018-09-05T13:04:03.321Z,40.90
2018-09-05T13:06:32.637Z,40.29
2018-09-05T13:09:01.956Z,39.99
2018-09-05T13:11:31.358Z,40.03
2018-09-05T13:14:00.795Z,40.39
2018-09-05T13:16:29.954Z,39.95
2018-09-05T13:19:00.600Z,40.42
2018-09-05T13:21:30.009Z,40.49
2018-09-05T13:23:59.424Z,39.77
2018-09-05T13:26:28.656Z,39.78
2018-09-05T13:28:58.347Z,40.12
2018-09-05T13:31:27.686Z,40.55
2018-09-05T13:33:56.955Z,38.63
2018-09-05T13:36:26.206Z,38.97
2018-09-05T13:38:55.456Z,39.20
2018-09-05T13:41:25.053Z,38.18
2018-09-05T13:43:55.451Z,38.79
2018-09-05T13:46:24.711Z,38.79
2018-09-05T13:48:55.381Z,39.51
2018-09-05T13:51:24.667Z,37.72
2018-09-05T13:53:54.215Z,38.23
2018-09-05T13:56:23.713Z,39.01
2018-09-05T13:58:53.156Z,39.95
2018-09-05T14:01:22.489Z,39.59
2018-09-05T14:03:52.357Z,39.12
2018-09-05T14:06:21.558Z,39.55
2018-09-05T14:08:51.804Z,39.35
2018-09-05T14:11:21.000Z,40.69
2018-09-05T14:13:50.325Z,39.81
2018-09-05T14:16:19.724Z,40.00
2018-09-05T14:18:48.889Z,40.67
2018-09-05T14:21:18.250Z,41.72
2018-09-05T14:23:47.767Z,42.96
2018-09-05T14:26:17.087Z,42.96
2018-09-05T14:28:46.249Z,41.43
2018-09-05T14:31:15.685Z,41.76
2018-09-05T14:33:45.806Z,41.82
2018-09-05T14:36:15.105Z,42.29
2018-09-05T14:38:44.671Z,43.63
2018-09-05T14:41:13.950Z,42.86
2018-09-05T14:43:43.296Z,42.72
2018-09-05T14:46:12.450Z,42.61
2018-09-05T14:48:42.189Z,42.82
2018-09-05T14:51:11.606Z,42.91
2018-09-05T14:53:40.835Z,43.10
2018-09-05T14:56:10.080Z,43.38
2018-09-05T14:58:39.348Z,42.96
2018-09-05T15:01:08.639Z,42.89
2018-09-05T15:03:38.491Z,43.15
2018-09-05T15:06:07.749Z,41.89
2018-09-05T15:08:37.575Z,42.55
2018-09-05T15:11:06.873Z,42.15
2018-09-05T15:13:36.804Z,42.37
2018-09-05T15:16:06.412Z,42.80
2018-09-05T15:18:35.849Z,41.95
2018-09-05T15:21:05.126Z,41.79
2018-09-05T15:23:34.689Z,42.06
2018-09-05T15:26:04.327Z,43.02
2018-09-05T15:30:55.205Z,43.41
2018-09-05T15:33:24.552Z,44.04
2018-09-05T15:35:53.775Z,42.84
2018-09-05T15:38:23.356Z,42.72
2018-09-05T15:40:52.777Z,43.10
2018-09-05T15:43:22.050Z,43.38
2018-09-05T15:45:51.357Z,43.57
2018-09-05T15:48:20.615Z,45.27
2018-09-05T15:50:49.812Z,44.95
2018-09-05T15:53:19.528Z,44.44
2018-09-05T15:55:48.751Z,43.72
2018-09-05T15:58:18.121Z,43.42
2018-09-05T16:00:47.502Z,43.40
2018-09-05T16:03:16.663Z,43.89
2018-09-05T16:05:45.920Z,43.43
2018-09-05T16:08:15.787Z,44.63
2018-09-05T16:10:44.981Z,45.35
2018-09-05T16:13:14.199Z,44.63
2018-09-05T16:15:43.628Z,45.63
2018-09-05T16:18:13.570Z,45.99
2018-09-05T16:20:42.836Z,45.75
2018-09-05T16:23:11.993Z,45.94
2018-09-05T16:25:41.245Z,45.43
2018-09-05T16:28:10.668Z,45.75
2018-09-05T16:30:40.016Z,44.64
2018-09-05T16:33:09.577Z,45.39
2018-09-05T16:35:39.095Z,44.74
2018-09-05T16:38:09.541Z,45.53
2018-09-05T16:40:39.444Z,46.09
2018-09-05T16:43:09.002Z,47.18
2018-09-05T16:45:41.440Z,46.51
2018-09-05T16:48:10.185Z,47.93
2018-09-05T16:50:39.821Z,48.17
2018-09-05T16:53:09.040Z,49.19
2018-09-05T16:55:38.285Z,49.89
2018-09-05T16:58:07.548Z,50.19
2018-09-05T17:00:36.698Z,49.35
2018-09-05T17:03:05.949Z,49.61
2018-09-05T17:05:35.273Z,49.73
2018-09-05T17:08:04.436Z,50.60
2018-09-05T17:10:33.616Z,49.83
2018-09-05T17:13:02.817Z,51.25
2018-09-05T17:15:32.048Z,50.56
2018-09-05T17:18:01.284Z,50.94
2018-09-05T17:20:30.805Z,50.80
2018-09-05T17:22:59.593Z,51.20
2018-09-05T17:25:28.845Z,52.20
2018-09-05T17:28:16.020Z,52.92
2018-09-05T17:30:44.880Z,52.70
2018-09-05T17:33:13.563Z,52.76
2018-09-05T17:35:42.225Z,54.12
2018-09-05T17:38:10.807Z,54.14
2018-09-05T17:40:41.877Z,53.56
2018-09-05T17:43:10.520Z,53.83
2018-09-05T17:45:39.664Z,54.73
2018-09-05T17:48:08.589Z,55.26
2018-09-05T17:50:37.245Z,55.00
2018-09-05T17:53:05.966Z,55.63
2018-09-05T17:55:35.196Z,56.38
2018-09-05T17:58:04.098Z,56.54
2018-09-05T18:00:32.876Z,55.77
2018-09-05T18:03:01.810Z,56.07
2018-09-05T18:05:31.065Z,57.17
2018-09-05T18:07:59.700Z,56.91
2018-09-05T18:10:28.517Z,56.53
2018-09-05T18:12:57.187Z,57.04
2018-09-05T18:15:25.868Z,57.46
2018-09-05T18:17:54.500Z,58.11
2018-09-05T18:20:24.029Z,58.34
2018-09-05T18:22:52.642Z,58.65
2018-09-05T18:25:21.224Z,59.20
2018-09-05T18:27:49.907Z,59.77
2018-09-05T18:30:18.566Z,60.04
2018-09-05T18:32:47.244Z,60.33
2018-09-05T18:35:15.910Z,60.39
2018-09-05T18:37:46.732Z,61.15
2018-09-05T18:40:15.352Z,61.96
2018-09-05T18:42:44.040Z,61.29
2018-09-05T18:45:12.628Z,62.43
2018-09-05T18:47:41.345Z,62.77
2018-09-05T18:50:10.061Z,62.98
2018-09-05T18:52:38.713Z,63.43
2018-09-05T18:55:07.365Z,63.61
2018-09-05T18:57:35.996Z,64.54
2018-09-05T19:00:05.560Z,65.06
2018-09-05T19:02:34.235Z,65.05
2018-09-05T19:05:02.949Z,65.47
2018-09-05T19:07:31.624Z,65.93
2018-09-05T19:10:00.306Z,66.71
2018-09-05T19:12:28.957Z,67.08
2018-09-05T19:14:57.912Z,67.03
2018-09-05T19:17:26.586Z,67.15
2018-09-05T19:19:55.360Z,67.61
2018-09-05T19:22:24.160Z,68.23
2018-09-05T19:24:52.763Z,68.92
2018-09-05T19:27:21.404Z,69.46
2018-09-05T19:29:51.227Z,70.15
2018-09-05T19:32:19.844Z,70.80
2018-09-05T19:34:48.528Z,70.69
2018-09-05T19:37:17.168Z,70.57
2018-09-05T19:39:46.004Z,71.04
2018-09-05T19:42:14.779Z,71.63
2018-09-05T19:44:44.096Z,71.72
2018-09-05T19:47:12.820Z,72.09
2018-09-05T19:49:41.533Z,72.60
2018-09-05T19:52:10.469Z,73.18
2018-09-05T19:54:39.068Z,73.77
2018-09-05T19:57:08.043Z,73.96
2018-09-05T19:59:36.756Z,73.89
2018-09-05T20:02:05.382Z,74.06
2018-09-05T20:04:34.031Z,73.55
2018-09-05T20:07:02.972Z,73.27
2018-09-05T20:09:34.122Z,73.35
2018-09-05T20:12:02.755Z,73.38
2018-09-05T20:14:31.391Z,74.31
2018-09-05T20:17:00.246Z,74.61
2018-09-05T20:19:28.925Z,75.24
2018-09-05T20:21:58.473Z,75.96
2018-09-05T20:24:27.944Z,76.25
2018-09-05T20:26:56.674Z,76.49
2018-09-05T20:29:25.262Z,76.71
2018-09-05T20:31:53.872Z,78.09
2018-09-05T20:34:22.580Z,78.55
2018-09-05T20:36:51.222Z,78.94
2018-09-05T20:39:19.861Z,79.28
2018-09-05T20:41:48.444Z,78.96
2018-09-05T20:44:17.100Z,78.99
2018-09-05T20:46:45.724Z,79.24
2018-09-05T20:49:14.317Z,79.68
2018-09-05T20:51:42.984Z,79.32
2018-09-05T20:54:11.944Z,80.24
2018-09-05T20:56:40.521Z,80.31
2018-09-05T20:59:09.115Z,80.22
2018-09-05T21:01:37.713Z,80.29
2018-09-05T21:04:06.740Z,80.48
2018-09-05T21:06:35.344Z,80.91
2018-09-05T21:09:04.868Z,81.95
2018-09-05T21:11:33.480Z,80.75
2018-09-05T21:14:02.072Z,81.15
2018-09-05T21:16:30.721Z,80.80
2018-09-05T21:18:59.352Z,80.63
2018-09-05T21:21:27.937Z,80.45
2018-09-05T21:23:56.532Z,81.46
2018-09-05T21:26:25.208Z,81.09
2018-09-05T21:28:54.006Z,80.99
2018-09-05T21:31:22.861Z,81.52
2018-09-05T21:33:51.534Z,81.35
2018-09-05T21:36:20.146Z,82.07
2018-09-05T21:38:48.913Z,81.80
2018-09-05T21:41:17.536Z,82.16
2018-09-05T21:43:46.136Z,83.35
2018-09-05T21:46:14.780Z,83.11
2018-09-05T21:48:43.925Z,83.30
2018-09-05T21:51:12.579Z,83.47
2018-09-05T21:53:42.444Z,84.03
2018-09-05T21:56:11.176Z,84.12
2018-09-05T21:58:39.816Z,84.45
2018-09-05T22:01:08.419Z,84.90
2018-09-05T22:03:37.028Z,85.26
2018-09-05T22:06:05.691Z,84.62
2018-09-05T22:08:34.290Z,85.44
2018-09-05T22:11:08.345Z,85.67
2018-09-05T22:13:36.947Z,85.09
2018-09-05T22:16:05.568Z,85.63
2018-09-05T22:18:34.144Z,85.71
2018-09-05T22:21:03.129Z,86.08
2018-09-05T22:23:31.828Z,86.68
2018-09-05T22:26:00.409Z,87.16
2018-09-05T22:28:29.036Z,86.63
2018-09-05T22:30:57.611Z,86.88
2018-09-05T22:33:26.221Z,86.84
2018-09-05T22:35:55.073Z,86.90
2018-09-05T22:38:23.648Z,86.29
2018-09-05T22:40:53.271Z,86.54
2018-09-05T22:43:34.228Z,86.46
2018-09-05T22:46:13.882Z,86.61
2018-09-05T22:50:02.661Z,86.65
2018-09-05T22:52:58.894Z,86.67
2018-09-05T22:57:47.241Z,86.95
2018-09-05T23:00:25.922Z,86.79
2018-09-05T23:04:07.388Z,87.75
2018-09-05T23:06:45.296Z,87.20
2018-09-05T23:09:13.945Z,87.87
2018-09-05T23:11:59.637Z,87.45
2018-09-05T23:14:40.460Z,88.53
2018-09-05T23:17:25.181Z,88.69
2018-09-05T23:21:14.378Z,87.25
2018-09-05T23:24:00.397Z,87.51
2018-09-05T23:26:29.681Z,87.36
2018-09-05T23:28:58.496Z,87.33
2018-09-05T23:31:27.241Z,86.72
2018-09-05T23:33:56.087Z,87.10
2018-09-05T23:36:25.113Z,86.92
2018-09-05T23:38:53.834Z,86.63
2018-09-05T23:41:22.576Z,85.74
2018-09-05T23:43:51.233Z,85.81
2018-09-05T23:46:20.859Z,86.63
2018-09-05T23:48:50.074Z,86.19
2018-09-05T23:51:18.893Z,85.42
2018-09-05T23:53:47.595Z,86.44
2018-09-05T23:56:16.274Z,85.22
2018-09-05T23:58:44.921Z,85.92
